Time;durP1;ratioP1;P1;durP2;ratioP2;P2;SDS_P1;SDS_P2;PMS_P1;PMS_P2;Temp;Humidity;BMP_temperature;BMP_pressure;BME280_temperature;BME280_humidity;BME280_pressure;Samples;Min_cycle;Max_cycle;Signal;HPM_P1;HPM_P2
2023/04/13 00:00:46;;;;;;;1.83;0.90;;;9.30;99.90;;;;;;5010001;28;20414;-86
2023/04/13 00:03:15;;;;;;;3.53;0.65;;;9.30;99.90;;;;;;4994245;28;20021;-89
2023/04/13 00:05:42;;;;;;;3.95;1.00;;;9.30;99.90;;;;;;5001890;28;20024;-88
2023/04/13 00:08:08;;;;;;;2.08;0.60;;;9.30;99.90;;;;;;5000408;28;20401;-88
2023/04/13 00:10:35;;;;;;;2.97;0.67;;;9.20;99.90;;;;;;4984064;28;20021;-86
2023/04/13 00:13:02;;;;;;;3.13;0.70;;;9.30;99.90;;;;;;5036896;28;20040;-87
2023/04/13 00:15:28;;;;;;;4.55;0.70;;;9.20;99.90;;;;;;5014408;28;20025;-87
2023/04/13 00:17:53;;;;;;;1.83;0.63;;;9.30;99.90;;;;;;5016171;28;20017;-87
2023/04/13 00:20:19;;;;;;;3.70;0.60;;;9.20;99.90;;;;;;5035476;28;20194;-87
2023/04/13 00:22:46;;;;;;;4.50;0.90;;;9.20;99.90;;;;;;5004372;28;20220;-88
2023/04/13 00:25:13;;;;;;;3.05;0.85;;;9.20;99.90;;;;;;5004526;28;20037;-88
2023/04/13 00:27:42;;;;;;;2.55;0.80;;;9.20;99.90;;;;;;4996311;28;20017;-89
2023/04/13 00:30:13;;;;;;;1.48;0.60;;;9.20;99.90;;;;;;5006558;28;20051;-88
2023/04/13 00:32:41;;;;;;;4.28;0.95;;;9.30;99.90;;;;;;5013289;28;20625;-87
2023/04/13 00:35:08;;;;;;;2.97;0.70;;;9.30;99.90;;;;;;5017697;28;20103;-87
2023/04/13 00:37:34;;;;;;;2.67;0.90;;;9.30;99.90;;;;;;5005698;28;20214;-89
2023/04/13 00:40:00;;;;;;;4.95;0.95;;;9.30;99.90;;;;;;5045865;28;20055;-85
2023/04/13 00:42:26;;;;;;;4.53;1.10;;;9.40;99.90;;;;;;5009682;28;20104;-88
2023/04/13 00:44:52;;;;;;;4.40;1.00;;;9.40;99.90;;;;;;5005945;28;20029;-86
2023/04/13 00:47:26;;;;;;;5.70;1.10;;;9.40;99.90;;;;;;5027473;28;20037;-86
2023/04/13 00:49:54;;;;;;;4.15;1.00;;;9.40;99.90;;;;;;5009430;28;20025;-86
2023/04/13 00:52:21;;;;;;;4.28;1.05;;;9.40;99.90;;;;;;5004596;28;20072;-86
2023/04/13 00:54:50;;;;;;;3.80;0.90;;;9.40;99.90;;;;;;5000377;28;20156;-87
2023/04/13 00:57:19;;;;;;;3.30;1.00;;;9.40;99.90;;;;;;4987221;28;20032;-88
2023/04/13 00:59:48;;;;;;;3.65;0.75;;;9.40;99.90;;;;;;5017459;28;20163;-84
2023/04/13 01:02:15;;;;;;;4.70;1.00;;;9.40;99.90;;;;;;4996377;28;20504;-88
2023/04/13 01:04:44;;;;;;;3.70;1.00;;;9.40;99.90;;;;;;4991445;28;20056;-88
2023/04/13 01:07:46;;;;;;;3.57;0.90;;;9.40;99.90;;;;;;5016799;28;20037;-87
2023/04/13 01:10:39;;;;;;;3.85;0.70;;;9.40;99.90;;;;;;4993937;28;20040;-88
2023/04/13 01:13:09;;;;;;;2.30;0.60;;;9.50;99.90;;;;;;4980500;28;20123;-89
2023/04/13 01:15:38;;;;;;;2.65;1.00;;;9.50;99.90;;;;;;5016322;28;20056;-91
2023/04/13 01:18:07;;;;;;;2.92;1.02;;;9.50;99.90;;;;;;4989091;28;20039;-88
2023/04/13 01:20:40;;;;;;;2.90;0.77;;;9.50;99.90;;;;;;5010686;28;20123;-86
2023/04/13 01:23:08;;;;;;;1.42;0.70;;;9.50;99.90;;;;;;5014982;28;20021;-87
2023/04/13 01:25:50;;;;;;;4.25;0.85;;;9.50;99.90;;;;;;4998730;28;20195;-87
2023/04/13 01:28:18;;;;;;;3.33;0.85;;;9.50;99.90;;;;;;4984286;28;20502;-86
2023/04/13 01:30:44;;;;;;;4.40;0.80;;;9.50;99.90;;;;;;4998868;28;20713;-89
2023/04/13 01:33:11;;;;;;;3.23;0.77;;;9.50;99.90;;;;;;5036401;28;20549;-85
2023/04/13 01:35:37;;;;;;;3.25;0.77;;;9.50;99.90;;;;;;5020730;28;20576;-86
2023/04/13 01:38:05;;;;;;;4.28;1.30;;;9.50;99.90;;;;;;5000606;28;20456;-87
2023/04/13 01:40:39;;;;;;;4.50;1.00;;;9.50;99.90;;;;;;5018109;28;20020;-87
2023/04/13 01:43:06;;;;;;;5.47;1.55;;;9.40;99.90;;;;;;4993692;28;20352;-87
2023/04/13 01:45:52;;;;;;;2.23;0.70;;;9.50;99.90;;;;;;4998084;28;20665;-86
2023/04/13 01:48:30;;;;;;;2.33;0.70;;;9.50;99.90;;;;;;5033894;28;20047;-87
2023/04/13 01:51:15;;;;;;;4.07;0.77;;;9.50;99.90;;;;;;5023779;28;20044;-88
2023/04/13 01:53:49;;;;;;;1.20;0.60;;;9.40;99.90;;;;;;5009416;28;20056;-86
2023/04/13 01:56:18;;;;;;;2.70;0.70;;;9.40;99.90;;;;;;5012626;28;20495;-84
2023/04/13 01:58:48;;;;;;;2.07;0.50;;;9.40;99.90;;;;;;5000273;28;20030;-87
2023/04/13 02:01:14;;;;;;;2.55;0.60;;;9.40;99.90;;;;;;5013494;28;20082;-87
2023/04/13 02:03:42;;;;;;;1.77;0.50;;;9.40;99.90;;;;;;5006324;28;20257;-86
2023/04/13 02:06:08;;;;;;;2.22;0.98;;;9.40;99.90;;;;;;4997710;28;20470;-86
2023/04/13 02:08:35;;;;;;;0.80;0.40;;;9.40;99.90;;;;;;5032304;28;20198;-86
2023/04/13 02:11:02;;;;;;;0.60;0.50;;;9.30;99.90;;;;;;5006313;28;20056;-85
2023/04/13 02:13:32;;;;;;;0.80;0.40;;;9.30;99.90;;;;;;5017371;28;20108;-87
2023/04/13 02:15:57;;;;;;;2.97;0.70;;;9.30;99.90;;;;;;5006856;28;20025;-86
2023/04/13 02:18:24;;;;;;;1.65;0.88;;;9.30;99.90;;;;;;5019324;28;20234;-85
2023/04/13 02:21:08;;;;;;;3.13;0.70;;;9.30;99.90;;;;;;4998418;28;20426;-89
2023/04/13 02:23:35;;;;;;;1.90;0.70;;;9.20;99.90;;;;;;5012668;28;20667;-87
2023/04/13 02:26:01;;;;;;;3.22;0.95;;;9.30;99.90;;;;;;5026722;28;20047;-86
2023/04/13 02:28:28;;;;;;;2.75;0.80;;;9.30;99.90;;;;;;5036160;28;20437;-88
2023/04/13 02:30:54;;;;;;;1.83;0.60;;;9.30;99.90;;;;;;5006554;28;20045;-87
2023/04/13 02:33:20;;;;;;;2.30;0.70;;;9.30;99.90;;;;;;5017735;28;20099;-86
2023/04/13 02:35:47;;;;;;;1.42;0.65;;;9.30;99.90;;;;;;5015414;28;20613;-87
2023/04/13 02:38:14;;;;;;;1.88;0.70;;;9.30;99.90;;;;;;5015737;28;20048;-88
2023/04/13 02:40:41;;;;;;;1.40;0.50;;;9.30;99.90;;;;;;5008263;28;20032;-85
2023/04/13 02:43:09;;;;;;;1.35;0.55;;;9.30;99.90;;;;;;5037150;28;20450;-87
2023/04/13 02:45:35;;;;;;;1.40;0.70;;;9.30;99.90;;;;;;5000733;28;20247;-87
2023/04/13 02:48:01;;;;;;;0.52;0.40;;;9.30;99.90;;;;;;5009291;28;20720;-86
2023/04/13 02:50:26;;;;;;;1.47;0.50;;;9.30;99.90;;;;;;4999229;28;20224;-86
2023/04/13 02:52:53;;;;;;;1.37;0.60;;;9.20;99.90;;;;;;5019305;28;20278;-86
2023/04/13 02:55:19;;;;;;;0.95;0.38;;;9.20;99.90;;;;;;5027957;28;20033;-87
2023/04/13 02:57:44;;;;;;;1.92;0.50;;;9.20;99.90;;;;;;5004692;28;20070;-88
2023/04/13 03:00:10;;;;;;;1.27;0.37;;;9.10;99.90;;;;;;5005756;28;20555;-87
2023/04/13 03:02:37;;;;;;;0.57;0.38;;;9.10;99.90;;;;;;5021780;28;20047;-85
2023/04/13 03:05:05;;;;;;;1.13;0.52;;;9.00;99.90;;;;;;5005685;28;20550;-87
2023/04/13 03:07:31;;;;;;;1.00;0.50;;;9.00;99.90;;;;;;4993251;28;20108;-87
2023/04/13 03:10:00;;;;;;;0.80;0.50;;;8.90;99.90;;;;;;5039412;28;20083;-88
2023/04/13 03:12:25;;;;;;;1.95;0.57;;;8.90;99.90;;;;;;4995242;28;20036;-87
2023/04/13 03:14:51;;;;;;;0.50;0.43;;;8.90;99.90;;;;;;5019540;28;20053;-88
2023/04/13 03:17:17;;;;;;;0.70;0.45;;;8.90;99.90;;;;;;5007523;28;20021;-89
2023/04/13 03:19:46;;;;;;;1.80;0.60;;;8.90;99.90;;;;;;5006854;28;20017;-86
2023/04/13 03:22:12;;;;;;;0.90;0.30;;;8.80;99.90;;;;;;5033788;28;20100;-88
2023/04/13 03:24:38;;;;;;;0.73;0.40;;;8.80;99.90;;;;;;5038141;28;20009;-87
2023/04/13 03:27:04;;;;;;;1.60;0.50;;;8.80;99.90;;;;;;5034911;28;20162;-86
2023/04/13 03:29:30;;;;;;;0.85;0.30;;;8.80;99.90;;;;;;5020309;28;20374;-88
2023/04/13 03:31:56;;;;;;;1.73;0.43;;;8.80;99.90;;;;;;5022413;28;20096;-88
2023/04/13 03:34:22;;;;;;;0.40;0.40;;;8.80;99.90;;;;;;5002373;28;20674;-88
2023/04/13 03:36:48;;;;;;;0.82;0.50;;;8.70;99.90;;;;;;5019686;28;20025;-87
2023/04/13 03:39:14;;;;;;;1.10;0.50;;;8.70;99.90;;;;;;5021230;28;20411;-88
2023/04/13 03:41:40;;;;;;;1.80;0.43;;;8.70;99.90;;;;;;5006860;28;20048;-87
2023/04/13 03:44:07;;;;;;;2.35;0.68;;;8.70;99.90;;;;;;5036428;28;20082;-88
2023/04/13 03:46:36;;;;;;;0.63;0.47;;;8.70;99.90;;;;;;5020061;28;20398;-89
2023/04/13 03:49:05;;;;;;;0.67;0.43;;;8.70;99.90;;;;;;5018740;28;20033;-86
2023/04/13 03:51:31;;;;;;;0.90;0.60;;;8.70;99.90;;;;;;5021373;28;20738;-86
2023/04/13 03:53:57;;;;;;;1.33;0.40;;;8.60;99.90;;;;;;5031375;28;20478;-87
2023/04/13 03:56:22;;;;;;;0.53;0.30;;;8.60;99.90;;;;;;5028395;28;20172;-87
2023/04/13 03:58:48;;;;;;;0.88;0.40;;;8.60;99.90;;;;;;5022697;28;20017;-86
2023/04/13 04:01:15;;;;;;;1.43;0.60;;;8.60;99.90;;;;;;5039470;28;20025;-88
2023/04/13 04:03:41;;;;;;;0.65;0.40;;;8.60;99.90;;;;;;4982736;28;20551;-86
2023/04/13 04:06:07;;;;;;;1.90;0.68;;;8.60;99.90;;;;;;5034586;28;20245;-88
2023/04/13 04:08:33;;;;;;;1.95;0.70;;;8.50;99.90;;;;;;4994985;28;20223;-87
2023/04/13 04:10:58;;;;;;;2.30;0.80;;;8.60;99.90;;;;;;5026629;28;20090;-87
2023/04/13 04:13:24;;;;;;;0.87;0.40;;;8.60;99.90;;;;;;5007335;28;20919;-88
2023/04/13 04:15:50;;;;;;;0.50;0.40;;;8.50;99.90;;;;;;5024824;28;20039;-86
2023/04/13 04:18:15;;;;;;;1.17;0.50;;;8.50;99.90;;;;;;5010576;28;20029;-86
2023/04/13 04:20:41;;;;;;;1.25;0.70;;;8.50;99.90;;;;;;5030263;28;20025;-88
2023/04/13 04:23:08;;;;;;;0.60;0.40;;;8.50;99.90;;;;;;5017707;28;20044;-87
2023/04/13 04:25:36;;;;;;;1.08;0.50;;;8.50;99.90;;;;;;5031452;28;20218;-87
2023/04/13 04:28:03;;;;;;;1.45;0.40;;;8.50;99.90;;;;;;5015592;28;20033;-89
2023/04/13 04:30:29;;;;;;;1.88;0.50;;;8.50;99.90;;;;;;5034872;28;20094;-90
2023/04/13 04:32:57;;;;;;;1.70;0.60;;;8.50;99.90;;;;;;5042796;28;20099;-87
2023/04/13 04:35:25;;;;;;;0.70;0.40;;;8.50;99.90;;;;;;5003842;28;20116;-85
2023/04/13 04:37:54;;;;;;;1.65;0.47;;;8.50;99.90;;;;;;5007777;28;20028;-87
2023/04/13 04:40:21;;;;;;;1.30;0.60;;;8.40;99.90;;;;;;5009900;28;20025;-86
2023/04/13 04:42:47;;;;;;;1.92;0.60;;;8.40;99.90;;;;;;5015869;28;20036;-87
2023/04/13 04:45:15;;;;;;;0.70;0.50;;;8.40;99.90;;;;;;5017862;28;20056;-87
2023/04/13 04:47:41;;;;;;;0.80;0.52;;;8.40;99.90;;;;;;5014743;28;20017;-86
2023/04/13 04:50:11;;;;;;;0.98;0.65;;;8.40;99.90;;;;;;5014843;28;20056;-87
2023/04/13 04:52:38;;;;;;;1.15;0.50;;;8.40;99.90;;;;;;5012244;28;20143;-86
2023/04/13 04:55:05;;;;;;;0.80;0.50;;;8.40;99.90;;;;;;5032042;28;20049;-87
2023/04/13 04:57:32;;;;;;;1.27;0.70;;;8.50;99.90;;;;;;4994119;28;20025;-87
2023/04/13 04:59:58;;;;;;;0.65;0.40;;;8.50;99.90;;;;;;5019022;28;20081;-88
2023/04/13 05:02:24;;;;;;;2.25;0.60;;;8.50;99.90;;;;;;4963855;28;20029;-88
2023/04/13 05:04:51;;;;;;;2.60;0.70;;;8.60;99.90;;;;;;5016118;28;21194;-88
2023/04/13 05:07:17;;;;;;;1.10;0.70;;;8.60;99.90;;;;;;4999754;28;20028;-88
2023/04/13 05:09:44;;;;;;;1.45;0.63;;;8.60;99.90;;;;;;4993334;28;20021;-88
2023/04/13 05:12:10;;;;;;;1.98;0.70;;;8.60;99.90;;;;;;5008715;28;20120;-90
2023/04/13 05:14:36;;;;;;;1.23;0.70;;;8.70;99.90;;;;;;4990397;28;20529;-86
2023/04/13 05:17:02;;;;;;;2.33;0.63;;;8.70;99.90;;;;;;5000177;28;20013;-86
2023/04/13 05:19:28;;;;;;;2.15;0.60;;;8.70;99.90;;;;;;5008082;28;20032;-87
2023/04/13 05:21:53;;;;;;;1.25;0.60;;;8.70;99.90;;;;;;4983029;28;20047;-87
2023/04/13 05:24:19;;;;;;;1.07;0.60;;;8.70;99.90;;;;;;5026887;28;20120;-87
2023/04/13 05:26:45;;;;;;;1.20;0.50;;;8.70;99.90;;;;;;5026127;28;20402;-86
2023/04/13 05:29:11;;;;;;;2.67;1.23;;;8.70;99.90;;;;;;5005858;28;20497;-86
2023/04/13 05:31:37;;;;;;;1.07;0.50;;;8.80;99.90;;;;;;5031039;28;20024;-86
2023/04/13 05:34:03;;;;;;;0.95;0.57;;;8.80;99.90;;;;;;4997070;28;20263;-85
2023/04/13 05:36:30;;;;;;;3.00;0.70;;;8.80;99.90;;;;;;4982144;28;20026;-87
2023/04/13 05:39:00;;;;;;;1.80;0.68;;;8.80;99.90;;;;;;4989149;28;20025;-86
2023/04/13 05:41:26;;;;;;;2.05;0.88;;;8.80;99.90;;;;;;5002395;28;20017;-86
2023/04/13 05:43:52;;;;;;;1.23;0.70;;;8.90;99.90;;;;;;5008114;28;20024;-87
2023/04/13 05:46:17;;;;;;;3.77;0.70;;;8.80;99.90;;;;;;5005641;28;20635;-86
2023/04/13 05:48:43;;;;;;;1.58;0.75;;;8.90;99.90;;;;;;4997791;28;20100;-88
2023/04/13 05:51:11;;;;;;;3.13;1.00;;;8.90;99.90;;;;;;4990160;28;20791;-86
2023/04/13 05:53:37;;;;;;;2.45;0.73;;;9.00;99.90;;;;;;5001844;28;20055;-89
2023/04/13 05:56:03;;;;;;;2.40;0.80;;;9.00;99.90;;;;;;5007060;28;20144;-87
2023/04/13 05:58:29;;;;;;;1.73;0.70;;;9.10;99.90;;;;;;4998888;28;20047;-86
2023/04/13 06:00:54;;;;;;;3.78;0.90;;;9.10;99.90;;;;;;5023324;28;20707;-87
2023/04/13 06:03:20;;;;;;;4.70;1.20;;;9.20;99.90;;;;;;5018455;28;20244;-85
2023/04/13 06:05:47;;;;;;;3.45;0.88;;;9.30;99.90;;;;;;5029800;28;20159;-87
2023/04/13 06:08:12;;;;;;;5.53;1.08;;;9.30;99.90;;;;;;4983039;28;20031;-87
2023/04/13 06:10:38;;;;;;;3.20;0.70;;;9.40;99.90;;;;;;4987098;28;20743;-85
2023/04/13 06:13:04;;;;;;;3.25;1.00;;;9.40;99.90;;;;;;5023580;28;20060;-86
2023/04/13 06:15:30;;;;;;;3.70;1.00;;;9.50;99.90;;;;;;4995877;28;22329;-87
2023/04/13 06:17:56;;;;;;;2.80;0.82;;;9.50;99.90;;;;;;5003027;28;20029;-86
2023/04/13 06:20:22;;;;;;;3.80;0.73;;;9.60;99.90;;;;;;4997968;28;20031;-85
2023/04/13 06:22:48;;;;;;;3.47;1.20;;;9.70;99.90;;;;;;4985798;28;20035;-85
2023/04/13 06:25:15;;;;;;;2.72;0.82;;;9.70;99.90;;;;;;4992579;28;20112;-87
2023/04/13 06:27:42;;;;;;;2.55;0.88;;;9.80;99.90;;;;;;4987095;28;22820;-86
2023/04/13 06:30:09;;;;;;;5.18;1.00;;;9.80;99.90;;;;;;4995838;28;20044;-86
2023/04/13 06:32:35;;;;;;;2.87;1.20;;;9.90;99.90;;;;;;4987540;28;20103;-85
2023/04/13 06:35:02;;;;;;;3.42;1.00;;;10.00;99.90;;;;;;4999548;28;20036;-88
2023/04/13 06:37:29;;;;;;;3.75;1.17;;;10.10;99.90;;;;;;4994584;28;20348;-83
2023/04/13 06:39:56;;;;;;;5.57;1.10;;;10.20;99.90;;;;;;5018292;28;20071;-89
2023/04/13 06:42:22;;;;;;;5.05;1.17;;;10.30;99.90;;;;;;4973947;28;20119;-87
2023/04/13 06:44:48;;;;;;;5.27;1.00;;;10.30;99.90;;;;;;5007164;28;20021;-85
2023/04/13 06:47:14;;;;;;;4.30;0.93;;;10.40;99.90;;;;;;4991705;28;20587;-87
2023/04/13 06:49:40;;;;;;;5.00;1.10;;;10.50;99.90;;;;;;5031832;28;20025;-85
2023/04/13 06:52:06;;;;;;;2.83;0.83;;;10.50;99.90;;;;;;4996336;28;20430;-85
2023/04/13 06:54:32;;;;;;;4.05;1.08;;;10.60;99.90;;;;;;5010887;28;20352;-85
2023/04/13 06:57:00;;;;;;;3.15;1.05;;;10.60;99.90;;;;;;5007990;28;21304;-86
2023/04/13 06:59:26;;;;;;;6.13;1.20;;;10.80;99.90;;;;;;4986466;28;20036;-90
2023/04/13 07:01:52;;;;;;;3.67;0.90;;;10.90;99.90;;;;;;5022125;28;20037;-87
2023/04/13 07:04:18;;;;;;;2.17;1.00;;;11.00;99.90;;;;;;5030217;28;20572;-87
2023/04/13 07:06:44;;;;;;;4.20;0.90;;;11.10;99.90;;;;;;4995830;28;20412;-85
2023/04/13 07:09:10;;;;;;;6.25;1.13;;;11.20;99.90;;;;;;5003935;28;20290;-88
2023/04/13 07:11:35;;;;;;;4.87;1.10;;;11.40;99.90;;;;;;4994050;28;20021;-87
2023/04/13 07:14:01;;;;;;;3.33;0.90;;;11.50;99.90;;;;;;4998282;28;20103;-87
2023/04/13 07:16:26;;;;;;;5.37;1.03;;;11.70;99.90;;;;;;5023715;28;20032;-89
2023/04/13 07:18:52;;;;;;;3.95;1.00;;;11.80;99.90;;;;;;4997148;28;20483;-86
2023/04/13 07:21:18;;;;;;;4.10;0.93;;;12.00;99.90;;;;;;5028009;28;20697;-86
2023/04/13 07:23:44;;;;;;;4.67;0.90;;;12.20;99.90;;;;;;4997840;28;20032;-87
2023/04/13 07:26:17;;;;;;;4.10;1.17;;;12.40;99.90;;;;;;5024485;28;20051;-86
2023/04/13 07:28:42;;;;;;;4.00;1.10;;;12.50;99.90;;;;;;4993947;28;20379;-87
2023/04/13 07:31:08;;;;;;;3.40;0.90;;;12.60;99.90;;;;;;5015174;28;20099;-84
2023/04/13 07:33:34;;;;;;;2.55;0.80;;;12.80;99.90;;;;;;5019770;28;20151;-86
2023/04/13 07:36:00;;;;;;;4.53;0.90;;;12.90;99.90;;;;;;4991218;28;20052;-85
2023/04/13 07:38:27;;;;;;;4.68;1.00;;;13.00;99.90;;;;;;5002236;28;20100;-87
2023/04/13 07:40:52;;;;;;;4.80;1.20;;;13.00;99.90;;;;;;5013908;28;20029;-90
2023/04/13 07:43:18;;;;;;;3.70;1.00;;;13.00;99.90;;;;;;4987446;28;20821;-89
2023/04/13 07:45:44;;;;;;;3.88;1.00;;;13.10;99.90;;;;;;5033626;28;20031;-87
2023/04/13 07:48:10;;;;;;;3.77;1.00;;;13.10;99.90;;;;;;5005850;28;20159;-88
2023/04/13 07:50:40;;;;;;;4.72;1.15;;;13.10;99.90;;;;;;4999138;28;20111;-86
2023/04/13 07:53:06;;;;;;;5.00;1.20;;;13.20;99.90;;;;;;5016231;28;20350;-87
2023/04/13 07:55:32;;;;;;;4.18;1.15;;;13.40;99.90;;;;;;5022748;28;20030;-87
2023/04/13 07:57:58;;;;;;;4.40;1.20;;;13.60;99.90;;;;;;5006027;28;20024;-87
2023/04/13 08:00:24;;;;;;;4.05;1.00;;;13.80;99.90;;;;;;4984112;28;20083;-84
2023/04/13 08:02:52;;;;;;;6.03;1.20;;;14.10;99.90;;;;;;5000577;28;20037;-89
2023/04/13 08:05:18;;;;;;;4.10;0.98;;;14.20;99.90;;;;;;5015697;28;20426;-86
2023/04/13 08:07:45;;;;;;;3.13;1.10;;;14.40;99.90;;;;;;5000363;28;20043;-85
2023/04/13 08:10:11;;;;;;;6.10;1.40;;;14.40;99.90;;;;;;5000439;28;20227;-85
2023/04/13 08:12:37;;;;;;;4.35;1.10;;;14.50;99.90;;;;;;5018118;28;20044;-89
2023/04/13 08:15:03;;;;;;;3.77;1.00;;;14.50;99.90;;;;;;4972978;28;20038;-86
2023/04/13 08:17:28;;;;;;;4.90;1.20;;;14.40;99.90;;;;;;5029701;28;20016;-89
2023/04/13 08:19:56;;;;;;;3.47;1.23;;;14.40;99.90;;;;;;5011431;28;20429;-86
2023/04/13 08:22:22;;;;;;;3.58;1.20;;;14.40;99.90;;;;;;5029153;28;20569;-87
2023/04/13 08:24:48;;;;;;;2.87;0.90;;;14.30;99.90;;;;;;5011044;28;20059;-86
2023/04/13 08:27:13;;;;;;;3.45;0.90;;;14.30;99.90;;;;;;5018972;28;20434;-88
2023/04/13 08:29:39;;;;;;;3.77;1.00;;;14.30;99.90;;;;;;4991712;28;20479;-86
2023/04/13 08:32:05;;;;;;;3.13;0.80;;;14.40;99.90;;;;;;4985000;28;20252;-90
2023/04/13 08:34:30;;;;;;;5.50;1.23;;;14.40;99.90;;;;;;5015214;28;20037;-87
2023/04/13 08:36:56;;;;;;;3.73;0.90;;;14.40;99.90;;;;;;4990604;28;20021;-89
2023/04/13 08:39:22;;;;;;;2.22;0.80;;;14.60;99.90;;;;;;4992492;28;20016;-89
2023/04/13 08:41:48;;;;;;;3.23;0.90;;;14.70;99.90;;;;;;5013926;28;20151;-87
2023/04/13 08:44:14;;;;;;;4.65;1.35;;;14.80;99.90;;;;;;4992416;28;20226;-86
2023/04/13 08:46:42;;;;;;;3.85;1.20;;;15.00;99.90;;;;;;5024899;28;20045;-86
2023/04/13 08:49:10;;;;;;;4.60;1.03;;;15.20;99.90;;;;;;5018554;28;20683;-88
2023/04/13 08:51:36;;;;;;;3.65;1.08;;;15.20;99.90;;;;;;5015061;28;20491;-87
2023/04/13 08:54:02;;;;;;;3.50;0.90;;;15.30;99.90;;;;;;5011733;28;20302;-87
2023/04/13 08:56:29;;;;;;;4.07;1.00;;;15.40;99.90;;;;;;5002704;28;20112;-85
2023/04/13 08:59:06;;;;;;;3.43;1.00;;;15.50;99.90;;;;;;4986296;28;20387;-86
2023/04/13 09:01:35;;;;;;;2.95;0.98;;;15.60;99.90;;;;;;5029142;28;20039;-85
2023/04/13 09:04:07;;;;;;;4.15;1.05;;;15.70;99.90;;;;;;4990002;28;20367;-88
2023/04/13 09:06:36;;;;;;;3.67;1.10;;;15.80;99.90;;;;;;5011113;28;20029;-87
2023/04/13 09:09:13;;;;;;;4.55;1.00;;;15.70;99.90;;;;;;4991376;28;20633;-88
2023/04/13 09:11:41;;;;;;;5.20;1.17;;;15.70;99.90;;;;;;5015812;28;20415;-87
2023/04/13 09:14:07;;;;;;;4.07;1.10;;;15.70;99.90;;;;;;4980014;28;20766;-91
2023/04/13 09:16:41;;;;;;;4.47;1.25;;;15.70;99.90;;;;;;5007429;28;20111;-87
2023/04/13 09:19:08;;;;;;;4.88;1.20;;;15.80;99.90;;;;;;4986912;28;20224;-86
2023/04/13 09:21:41;;;;;;;2.88;1.15;;;15.90;99.90;;;;;;5003758;28;20085;-90
2023/04/13 09:24:08;;;;;;;4.20;1.40;;;16.00;99.90;;;;;;5007101;28;20516;-87
2023/04/13 09:26:45;;;;;;;3.63;1.10;;;16.30;99.90;;;;;;4999086;28;20029;-87
2023/04/13 09:29:15;;;;;;;3.90;1.20;;;16.60;99.90;;;;;;5019528;28;20663;-87
2023/04/13 09:31:42;;;;;;;3.78;1.30;;;16.90;99.90;;;;;;4983402;28;20056;-86
2023/04/13 09:34:08;;;;;;;5.90;1.10;;;17.20;99.90;;;;;;4983899;28;20438;-89
2023/04/13 09:36:35;;;;;;;4.57;1.13;;;17.50;99.90;;;;;;5021058;28;20021;-82
2023/04/13 09:39:02;;;;;;;4.93;1.40;;;17.80;99.90;;;;;;4979846;28;20448;-89
2023/04/13 09:41:35;;;;;;;4.88;1.20;;;18.00;99.90;;;;;;4995538;28;20025;-89
2023/04/13 09:44:19;;;;;;;3.95;1.27;;;18.00;99.90;;;;;;5002341;28;20663;-88
2023/04/13 09:46:58;;;;;;;4.20;1.20;;;18.10;99.40;;;;;;4999361;28;20041;-88
2023/04/13 09:49:25;;;;;;;3.43;1.00;;;18.10;99.90;;;;;;5000430;28;20025;-88
2023/04/13 09:51:53;;;;;;;3.30;1.20;;;18.20;99.90;;;;;;5012657;28;20025;-87
2023/04/13 09:54:21;;;;;;;4.43;1.10;;;18.30;99.90;;;;;;4990820;28;20025;-87
2023/04/13 09:56:55;;;;;;;4.97;1.23;;;18.40;99.90;;;;;;4996409;28;20419;-89
2023/04/13 09:59:26;;;;;;;4.57;1.00;;;18.30;99.90;;;;;;5029025;28;20076;-88
2023/04/13 10:01:52;;;;;;;3.80;1.00;;;18.10;99.90;;;;;;5000301;28;20178;-89
2023/04/13 10:04:18;;;;;;;4.32;1.30;;;17.90;99.90;;;;;;5005364;28;20518;-88
2023/04/13 10:06:45;;;;;;;4.38;1.20;;;17.80;99.90;;;;;;5029560;28;20029;-87
2023/04/13 10:09:11;;;;;;;3.92;1.23;;;17.80;99.90;;;;;;4994016;28;20052;-89
2023/04/13 10:11:50;;;;;;;3.45;1.15;;;18.10;99.90;;;;;;5013506;28;20034;-88
2023/04/13 10:14:21;;;;;;;5.47;1.10;;;18.40;99.90;;;;;;5005942;28;20051;-89
2023/04/13 10:17:04;;;;;;;4.28;1.40;;;18.80;99.90;;;;;;5000523;28;20025;-87
2023/04/13 10:19:36;;;;;;;3.28;1.13;;;19.20;99.90;;;;;;5021997;28;20287;-88
2023/04/13 10:22:04;;;;;;;3.88;1.20;;;19.40;99.90;;;;;;5015224;28;20020;-87
2023/04/13 10:24:30;;;;;;;3.40;1.02;;;19.50;99.90;;;;;;5009025;28;20140;-87
2023/04/13 10:26:59;;;;;;;2.17;1.10;;;19.40;99.90;;;;;;5022955;28;20485;-89
2023/04/13 10:29:31;;;;;;;3.40;0.93;;;19.40;99.90;;;;;;4991252;28;20587;-89
2023/04/13 10:32:03;;;;;;;4.57;1.10;;;19.20;99.00;;;;;;5021610;28;20108;-87
2023/04/13 10:34:31;;;;;;;3.42;1.00;;;19.20;99.90;;;;;;4990553;28;20212;-89
2023/04/13 10:37:01;;;;;;;3.70;1.30;;;19.10;99.90;;;;;;5006880;28;20052;-87
2023/04/13 10:39:32;;;;;;;4.40;1.10;;;18.90;99.90;;;;;;5004895;28;20033;-88
2023/04/13 10:42:01;;;;;;;3.25;0.93;;;18.80;99.50;;;;;;5020233;28;20112;-84
2023/04/13 10:44:39;;;;;;;3.47;1.10;;;18.70;99.90;;;;;;5004086;28;20249;-90
2023/04/13 10:47:05;;;;;;;2.67;1.05;;;18.70;99.90;;;;;;5018119;28;20475;-88
2023/04/13 10:49:31;;;;;;;3.40;1.03;;;18.80;99.90;;;;;;5008343;28;20048;-88
2023/04/13 10:51:57;;;;;;;3.38;1.00;;;19.10;99.90;;;;;;5032073;28;20088;-88
2023/04/13 10:54:26;;;;;;;4.17;1.17;;;19.50;99.90;;;;;;5009412;28;20177;-83
2023/04/13 10:56:56;;;;;;;3.45;1.10;;;19.90;99.90;;;;;;5028727;28;20450;-87
2023/04/13 10:59:22;;;;;;;2.10;1.00;;;20.30;99.90;;;;;;4997375;28;20349;-88
2023/04/13 11:01:47;;;;;;;3.80;1.00;;;20.70;99.90;;;;;;5022712;28;20478;-90
2023/04/13 11:04:14;;;;;;;2.47;0.90;;;21.00;99.90;;;;;;5002897;28;20481;-87
2023/04/13 11:06:40;;;;;;;2.38;0.82;;;21.40;99.90;;;;;;4990846;28;20032;-90
2023/04/13 11:09:05;;;;;;;3.55;1.00;;;21.60;99.90;;;;;;5022369;28;20025;-83
2023/04/13 11:11:35;;;;;;;3.63;1.20;;;21.70;99.90;;;;;;5012492;28;20466;-88
2023/04/13 11:14:00;;;;;;;3.50;1.02;;;21.90;99.90;;;;;;5020458;28;20040;-88
2023/04/13 11:16:26;;;;;;;2.73;0.87;;;22.00;99.90;;;;;;5034843;28;20022;-82
2023/04/13 11:19:04;;;;;;;4.07;1.10;;;22.20;99.90;;;;;;5004604;28;21042;-87
2023/04/13 11:21:30;;;;;;;2.30;0.80;;;22.40;95.20;;;;;;4975233;28;20052;-91
2023/04/13 11:24:01;;;;;;;3.88;0.98;;;22.50;99.90;;;;;;4997174;28;20490;-89
2023/04/13 11:26:36;;;;;;;3.38;1.23;;;22.50;99.70;;;;;;5015068;28;20412;-87
2023/04/13 11:29:02;;;;;;;4.57;1.17;;;22.60;98.90;;;;;;5003917;28;20063;-90
2023/04/13 11:31:40;;;;;;;2.15;1.00;;;22.60;99.90;;;;;;5014313;28;20099;-87
2023/04/13 11:34:12;;;;;;;3.67;1.02;;;22.60;93.80;;;;;;5016073;28;20098;-87
2023/04/13 11:36:39;;;;;;;3.08;1.10;;;22.50;96.60;;;;;;5000495;28;20361;-88
2023/04/13 11:39:09;;;;;;;2.20;1.00;;;22.20;94.20;;;;;;4995943;28;20551;-89
2023/04/13 11:41:42;;;;;;;2.70;1.00;;;22.00;95.80;;;;;;4999523;28;20112;-92
2023/04/13 11:44:10;;;;;;;3.15;1.08;;;21.90;93.80;;;;;;5011439;28;20026;-88
2023/04/13 11:46:36;;;;;;;3.03;0.98;;;21.70;95.70;;;;;;4993961;28;20033;-87
2023/04/13 11:49:03;;;;;;;4.57;1.00;;;21.50;98.20;;;;;;5001597;28;20059;-89
2023/04/13 11:51:31;;;;;;;2.13;0.90;;;21.50;96.80;;;;;;5016178;28;20036;-89
2023/04/13 11:53:57;;;;;;;2.90;1.00;;;21.50;98.10;;;;;;4994127;28;20029;-87
2023/04/13 11:56:24;;;;;;;3.25;1.00;;;21.50;98.00;;;;;;4983720;28;20175;-86
2023/04/13 11:58:51;;;;;;;1.80;0.90;;;21.40;98.90;;;;;;5016305;28;20457;-86
2023/04/13 12:01:20;;;;;;;2.80;1.10;;;21.50;99.90;;;;;;5005297;28;20259;-87
2023/04/13 12:03:46;;;;;;;4.22;1.10;;;21.60;99.90;;;;;;5007449;28;20037;-88
2023/04/13 12:06:13;;;;;;;2.22;0.90;;;21.80;99.90;;;;;;5009274;28;20615;-90
2023/04/13 12:08:39;;;;;;;2.03;0.80;;;21.90;99.90;;;;;;4984151;28;20029;-88
2023/04/13 12:11:05;;;;;;;2.38;0.88;;;22.10;99.90;;;;;;4979760;28;20048;-90
2023/04/13 12:13:44;;;;;;;1.30;0.80;;;22.30;99.90;;;;;;5011844;28;20048;-90
2023/04/13 12:16:22;;;;;;;1.88;0.80;;;22.50;96.80;;;;;;4989883;28;20026;-89
2023/04/13 12:18:48;;;;;;;2.70;0.93;;;22.70;99.90;;;;;;5008322;28;20006;-86
2023/04/13 12:21:17;;;;;;;1.80;0.70;;;22.90;99.90;;;;;;5007248;28;20284;-88
2023/04/13 12:24:00;;;;;;;2.35;0.75;;;23.00;99.30;;;;;;5014816;28;20026;-87
2023/04/13 12:26:33;;;;;;;3.20;0.90;;;23.20;95.30;;;;;;4978732;28;20116;-88
2023/04/13 12:29:03;;;;;;;3.42;0.85;;;23.30;96.10;;;;;;4997537;28;20135;-90
2023/04/13 12:31:36;;;;;;;1.98;0.80;;;23.40;98.60;;;;;;5005606;28;20108;-83
2023/04/13 12:34:04;;;;;;;2.25;0.90;;;23.50;95.80;;;;;;5009473;28;20045;-88
2023/04/13 12:36:30;;;;;;;1.60;0.70;;;23.40;97.10;;;;;;5017448;28;20026;-90
2023/04/13 12:38:58;;;;;;;1.53;0.70;;;23.30;98.00;;;;;;4984092;28;20454;-89
2023/04/13 12:41:24;;;;;;;2.92;0.75;;;23.30;96.40;;;;;;5000250;28;20639;-89
2023/04/13 12:43:50;;;;;;;2.30;0.80;;;23.30;99.40;;;;;;5005925;28;20163;-88
2023/04/13 12:46:16;;;;;;;3.67;1.07;;;23.40;99.50;;;;;;5008336;28;20159;-89
2023/04/13 12:48:42;;;;;;;1.98;0.70;;;23.30;97.80;;;;;;5016909;28;20039;-91
2023/04/13 12:51:08;;;;;;;1.67;1.02;;;23.30;97.90;;;;;;5014760;28;20033;-89
2023/04/13 12:53:34;;;;;;;2.50;0.90;;;23.20;97.00;;;;;;5017261;28;20022;-88
2023/04/13 12:56:01;;;;;;;2.17;0.80;;;23.20;97.60;;;;;;4975725;28;20083;-90